sensor_id;sensor_type;location;lat;lon;timestamp;pressure;altitude;pressure_sealevel;temperature;humidity
72486;BME280;60509;47.308;-122.428;2023-04-28T00:01:10;101092.48;;;17.67;24.72
72486;BME280;60509;47.308;-122.428;2023-04-28T00:03:36;101091.64;;;16.75;25.13
72486;BME280;60509;47.308;-122.428;2023-04-28T00:06:02;101089.85;;;16.05;25.24
72486;BME280;60509;47.308;-122.428;2023-04-28T00:08:28;101088.13;;;16.26;24.52
72486;BME280;60509;47.308;-122.428;2023-04-28T00:10:54;101085.43;;;16.39;24.38
72486;BME280;60509;47.308;-122.428;2023-04-28T00:13:19;101088.24;;;15.63;25.72
72486;BME280;60509;47.308;-122.428;2023-04-28T00:15:45;101084.85;;;17.46;24.65
72486;BME280;60509;47.308;-122.428;2023-04-28T00:18:11;101085.62;;;17.94;23.95
72486;BME280;60509;47.308;-122.428;2023-04-28T00:20:37;101086.61;;;18.44;23.86
72486;BME280;60509;47.308;-122.428;2023-04-28T00:23:03;101088.01;;;17.04;24.74
72486;BME280;60509;47.308;-122.428;2023-04-28T00:25:29;101084.84;;;16.17;25.04
72486;BME280;60509;47.308;-122.428;2023-04-28T00:27:55;101086.85;;;15.94;24.86
72486;BME280;60509;47.308;-122.428;2023-04-28T00:30:21;101082.83;;;16.61;24.23
72486;BME280;60509;47.308;-122.428;2023-04-28T00:32:47;101083.34;;;16.53;23.98
72486;BME280;60509;47.308;-122.428;2023-04-28T00:35:13;101086.81;;;16.39;23.87
72486;BME280;60509;47.308;-122.428;2023-04-28T00:37:39;101083.40;;;16.79;24.71
72486;BME280;60509;47.308;-122.428;2023-04-28T00:40:06;101084.11;;;17.90;23.28
72486;BME280;60509;47.308;-122.428;2023-04-28T00:42:30;101080.52;;;18.73;23.17
72486;BME280;60509;47.308;-122.428;2023-04-28T00:44:56;101079.52;;;18.81;23.39
72486;BME280;60509;47.308;-122.428;2023-04-28T00:47:22;101075.46;;;17.21;23.78
72486;BME280;60509;47.308;-122.428;2023-04-28T00:49:48;101075.30;;;16.12;24.23
72486;BME280;60509;47.308;-122.428;2023-04-28T00:52:14;101077.36;;;16.85;23.58
72486;BME280;60509;47.308;-122.428;2023-04-28T00:54:40;101077.66;;;16.29;23.74
72486;BME280;60509;47.308;-122.428;2023-04-28T00:57:07;101077.66;;;16.29;23.53
72486;BME280;60509;47.308;-122.428;2023-04-28T00:59:32;101071.77;;;15.68;23.73
72486;BME280;60509;47.308;-122.428;2023-04-28T01:01:59;101070.64;;;17.84;23.62
72486;BME280;60509;47.308;-122.428;2023-04-28T01:04:24;101069.20;;;18.69;22.77
72486;BME280;60509;47.308;-122.428;2023-04-28T01:06:52;101070.13;;;18.56;23.03
72486;BME280;60509;47.308;-122.428;2023-04-28T01:09:16;101072.36;;;17.34;23.48
72486;BME280;60509;47.308;-122.428;2023-04-28T01:11:43;101069.72;;;16.81;23.61
72486;BME280;60509;47.308;-122.428;2023-04-28T01:14:09;101072.24;;;16.78;23.92
72486;BME280;60509;47.308;-122.428;2023-04-28T01:16:34;101069.68;;;16.07;24.56
72486;BME280;60509;47.308;-122.428;2023-04-28T01:19:00;101065.57;;;16.78;24.27
72486;BME280;60509;47.308;-122.428;2023-04-28T01:21:27;101067.72;;;16.47;24.24
72486;BME280;60509;47.308;-122.428;2023-04-28T01:23:51;101062.47;;;17.31;24.55
72486;BME280;60509;47.308;-122.428;2023-04-28T01:26:17;101057.59;;;18.29;23.50
72486;BME280;60509;47.308;-122.428;2023-04-28T01:28:43;101051.96;;;18.27;23.73
72486;BME280;60509;47.308;-122.428;2023-04-28T01:31:09;101050.69;;;17.74;24.10
72486;BME280;60509;47.308;-122.428;2023-04-28T01:33:35;101047.58;;;17.11;23.97
72486;BME280;60509;47.308;-122.428;2023-04-28T01:36:01;101045.10;;;16.20;24.25
72486;BME280;60509;47.308;-122.428;2023-04-28T01:38:27;101042.02;;;16.56;23.89
72486;BME280;60509;47.308;-122.428;2023-04-28T01:40:54;101040.80;;;16.23;23.64
72486;BME280;60509;47.308;-122.428;2023-04-28T01:43:19;101040.30;;;16.61;23.32
72486;BME280;60509;47.308;-122.428;2023-04-28T01:45:44;101035.78;;;16.31;25.37
72486;BME280;60509;47.308;-122.428;2023-04-28T01:48:10;101033.55;;;17.95;23.33
72486;BME280;60509;47.308;-122.428;2023-04-28T01:50:36;101023.25;;;18.16;23.30
72486;BME280;60509;47.308;-122.428;2023-04-28T01:53:02;101021.91;;;18.72;23.38
72486;BME280;60509;47.308;-122.428;2023-04-28T01:55:28;101021.39;;;16.40;24.08
72486;BME280;60509;47.308;-122.428;2023-04-28T01:57:54;101022.41;;;16.26;23.82
72486;BME280;60509;47.308;-122.428;2023-04-28T02:00:20;101023.54;;;16.37;23.92
72486;BME280;60509;47.308;-122.428;2023-04-28T02:02:45;101018.38;;;15.48;23.91
72486;BME280;60509;47.308;-122.428;2023-04-28T02:05:11;101022.70;;;15.77;25.39
72486;BME280;60509;47.308;-122.428;2023-04-28T02:07:37;101020.34;;;17.64;23.22
72486;BME280;60509;47.308;-122.428;2023-04-28T02:10:03;101014.29;;;18.03;23.89
72486;BME280;60509;47.308;-122.428;2023-04-28T02:12:29;101016.14;;;18.70;23.87
72486;BME280;60509;47.308;-122.428;2023-04-28T02:14:55;101011.62;;;18.52;23.90
72486;BME280;60509;47.308;-122.428;2023-04-28T02:17:21;101013.62;;;17.54;25.24
72486;BME280;60509;47.308;-122.428;2023-04-28T02:19:46;101012.22;;;17.85;24.11
72486;BME280;60509;47.308;-122.428;2023-04-28T02:22:12;101011.35;;;17.17;23.64
72486;BME280;60509;47.308;-122.428;2023-04-28T02:24:38;101012.01;;;16.70;23.56
72486;BME280;60509;47.308;-122.428;2023-04-28T02:27:04;101006.93;;;17.11;24.93
72486;BME280;60509;47.308;-122.428;2023-04-28T02:29:30;101007.95;;;17.55;24.23
72486;BME280;60509;47.308;-122.428;2023-04-28T02:31:56;101010.08;;;18.48;23.68
72486;BME280;60509;47.308;-122.428;2023-04-28T02:34:22;101006.48;;;19.91;22.88
72486;BME280;60509;47.308;-122.428;2023-04-28T02:36:48;101007.71;;;19.10;23.26
72486;BME280;60509;47.308;-122.428;2023-04-28T02:39:13;101006.84;;;18.56;23.28
72486;BME280;60509;47.308;-122.428;2023-04-28T02:41:39;101011.23;;;17.92;23.33
72486;BME280;60509;47.308;-122.428;2023-04-28T02:44:05;101013.29;;;17.18;23.36
72486;BME280;60509;47.308;-122.428;2023-04-28T02:46:31;101016.07;;;16.62;23.49
72486;BME280;60509;47.308;-122.428;2023-04-28T02:48:57;101014.77;;;17.14;24.36
72486;BME280;60509;47.308;-122.428;2023-04-28T02:51:23;101012.83;;;17.52;24.02
72486;BME280;60509;47.308;-122.428;2023-04-28T02:53:49;101005.22;;;17.99;23.60
72486;BME280;60509;47.308;-122.428;2023-04-28T02:56:15;101006.77;;;18.10;23.85
72486;BME280;60509;47.308;-122.428;2023-04-28T02:58:41;101001.75;;;18.21;23.93
72486;BME280;60509;47.308;-122.428;2023-04-28T03:01:06;101005.33;;;18.53;23.83
72486;BME280;60509;47.308;-122.428;2023-04-28T03:03:33;101006.19;;;17.86;23.36
72486;BME280;60509;47.308;-122.428;2023-04-28T03:05:58;101006.91;;;17.42;23.39
72486;BME280;60509;47.308;-122.428;2023-04-28T03:08:24;101003.80;;;16.93;23.47
72486;BME280;60509;47.308;-122.428;2023-04-28T03:10:50;101002.15;;;17.03;24.37
72486;BME280;60509;47.308;-122.428;2023-04-28T03:13:16;101002.40;;;17.82;24.03
72486;BME280;60509;47.308;-122.428;2023-04-28T03:15:42;101001.47;;;18.27;24.12
72486;BME280;60509;47.308;-122.428;2023-04-28T03:18:08;101000.98;;;18.67;23.82
72486;BME280;60509;47.308;-122.428;2023-04-28T03:20:34;100996.88;;;19.33;23.58
72486;BME280;60509;47.308;-122.428;2023-04-28T03:23:05;100994.00;;;19.27;23.76
72486;BME280;60509;47.308;-122.428;2023-04-28T03:25:26;100997.05;;;17.75;24.36
72486;BME280;60509;47.308;-122.428;2023-04-28T03:27:52;100999.41;;;17.69;24.03
72486;BME280;60509;47.308;-122.428;2023-04-28T03:30:18;100995.77;;;17.07;23.90
72486;BME280;60509;47.308;-122.428;2023-04-28T03:32:43;100999.00;;;16.63;25.30
72486;BME280;60509;47.308;-122.428;2023-04-28T03:35:10;100997.10;;;18.47;23.93
72486;BME280;60509;47.308;-122.428;2023-04-28T03:37:36;100996.57;;;19.06;23.49
72486;BME280;60509;47.308;-122.428;2023-04-28T03:40:02;100995.44;;;19.49;23.36
72486;BME280;60509;47.308;-122.428;2023-04-28T03:42:27;100994.71;;;19.34;23.54
72486;BME280;60509;47.308;-122.428;2023-04-28T03:44:53;100992.10;;;19.40;23.50
72486;BME280;60509;47.308;-122.428;2023-04-28T03:47:19;100997.34;;;19.65;23.35
72486;BME280;60509;47.308;-122.428;2023-04-28T03:49:45;100995.58;;;19.42;23.65
72486;BME280;60509;47.308;-122.428;2023-04-28T03:52:11;100999.96;;;19.39;23.60
72486;BME280;60509;47.308;-122.428;2023-04-28T03:54:37;100998.88;;;19.42;23.64
72486;BME280;60509;47.308;-122.428;2023-04-28T03:57:03;100995.45;;;19.20;23.80
72486;BME280;60509;47.308;-122.428;2023-04-28T03:59:29;100995.12;;;16.91;24.35
72486;BME280;60509;47.308;-122.428;2023-04-28T04:01:55;100997.49;;;16.74;24.80
72486;BME280;60509;47.308;-122.428;2023-04-28T04:04:21;100996.79;;;16.76;25.35
72486;BME280;60509;47.308;-122.428;2023-04-28T04:06:47;100995.05;;;18.69;24.09
72486;BME280;60509;47.308;-122.428;2023-04-28T04:09:12;100996.71;;;18.95;23.70
72486;BME280;60509;47.308;-122.428;2023-04-28T04:11:38;100998.47;;;18.17;24.19
72486;BME280;60509;47.308;-122.428;2023-04-28T04:14:05;100996.94;;;19.32;23.69
72486;BME280;60509;47.308;-122.428;2023-04-28T04:16:30;100996.99;;;19.00;24.01
72486;BME280;60509;47.308;-122.428;2023-04-28T04:18:56;100992.60;;;18.77;24.01
72486;BME280;60509;47.308;-122.428;2023-04-28T04:21:22;100990.13;;;19.59;23.62
72486;BME280;60509;47.308;-122.428;2023-04-28T04:23:48;100995.42;;;18.83;24.38
72486;BME280;60509;47.308;-122.428;2023-04-28T04:26:14;101002.50;;;19.02;24.18
72486;BME280;60509;47.308;-122.428;2023-04-28T04:28:40;100997.38;;;19.22;24.03
72486;BME280;60509;47.308;-122.428;2023-04-28T04:31:06;100999.52;;;18.25;24.73
72486;BME280;60509;47.308;-122.428;2023-04-28T04:33:32;100995.33;;;18.07;24.81
72486;BME280;60509;47.308;-122.428;2023-04-28T04:35:57;101001.39;;;18.06;24.92
72486;BME280;60509;47.308;-122.428;2023-04-28T04:38:24;100995.62;;;18.93;24.13
72486;BME280;60509;47.308;-122.428;2023-04-28T04:40:49;100994.40;;;18.04;24.92
72486;BME280;60509;47.308;-122.428;2023-04-28T04:43:15;100989.35;;;18.45;24.57
72486;BME280;60509;47.308;-122.428;2023-04-28T04:45:41;100988.07;;;18.12;25.06
72486;BME280;60509;47.308;-122.428;2023-04-28T04:48:07;100988.75;;;17.70;25.33
72486;BME280;60509;47.308;-122.428;2023-04-28T04:50:33;100984.52;;;17.62;25.42
72486;BME280;60509;47.308;-122.428;2023-04-28T04:52:59;100987.28;;;17.24;25.38
72486;BME280;60509;47.308;-122.428;2023-04-28T04:55:25;100978.20;;;17.86;25.02
72486;BME280;60509;47.308;-122.428;2023-04-28T04:57:51;100980.17;;;18.06;24.90
72486;BME280;60509;47.308;-122.428;2023-04-28T05:00:18;100978.40;;;17.90;25.02
72486;BME280;60509;47.308;-122.428;2023-04-28T05:02:43;100978.15;;;17.38;25.36
72486;BME280;60509;47.308;-122.428;2023-04-28T05:05:09;100980.51;;;18.04;25.31
72486;BME280;60509;47.308;-122.428;2023-04-28T05:07:35;100979.78;;;18.03;25.73
72486;BME280;60509;47.308;-122.428;2023-04-28T05:10:01;100978.87;;;17.97;25.86
72486;BME280;60509;47.308;-122.428;2023-04-28T05:12:27;100979.57;;;17.25;26.24
72486;BME280;60509;47.308;-122.428;2023-04-28T05:14:52;100972.99;;;18.09;26.08
72486;BME280;60509;47.308;-122.428;2023-04-28T05:17:18;100980.30;;;17.35;26.55
72486;BME280;60509;47.308;-122.428;2023-04-28T05:19:44;100975.32;;;17.67;26.39
72486;BME280;60509;47.308;-122.428;2023-04-28T05:22:10;100977.02;;;17.74;26.47
72486;BME280;60509;47.308;-122.428;2023-04-28T05:24:36;100978.76;;;17.86;26.41
72486;BME280;60509;47.308;-122.428;2023-04-28T05:27:02;100972.29;;;17.84;26.46
72486;BME280;60509;47.308;-122.428;2023-04-28T05:29:28;100972.47;;;17.49;26.74
72486;BME280;60509;47.308;-122.428;2023-04-28T05:31:54;100972.79;;;17.58;26.49
72486;BME280;60509;47.308;-122.428;2023-04-28T05:34:20;100971.98;;;17.74;26.53
72486;BME280;60509;47.308;-122.428;2023-04-28T05:36:46;100976.32;;;17.64;26.49
72486;BME280;60509;47.308;-122.428;2023-04-28T05:39:12;100985.03;;;17.64;26.27
72486;BME280;60509;47.308;-122.428;2023-04-28T05:41:37;100986.95;;;17.62;26.41
72486;BME280;60509;47.308;-122.428;2023-04-28T05:44:04;100985.36;;;17.24;26.75
72486;BME280;60509;47.308;-122.428;2023-04-28T05:46:30;100982.27;;;17.15;26.75
72486;BME280;60509;47.308;-122.428;2023-04-28T05:48:55;100979.86;;;17.40;26.50
72486;BME280;60509;47.308;-122.428;2023-04-28T05:51:21;100977.41;;;17.91;25.98
72486;BME280;60509;47.308;-122.428;2023-04-28T05:53:47;100974.12;;;18.14;26.07
72486;BME280;60509;47.308;-122.428;2023-04-28T05:56:13;100974.92;;;17.25;26.98
72486;BME280;60509;47.308;-122.428;2023-04-28T05:58:39;100974.55;;;17.26;26.99
72486;BME280;60509;47.308;-122.428;2023-04-28T06:01:05;100980.84;;;16.39;27.80
72486;BME280;60509;47.308;-122.428;2023-04-28T06:03:30;100976.82;;;17.55;26.87
72486;BME280;60509;47.308;-122.428;2023-04-28T06:05:56;100968.80;;;18.21;26.54
72486;BME280;60509;47.308;-122.428;2023-04-28T06:08:22;100966.85;;;17.36;27.26
72486;BME280;60509;47.308;-122.428;2023-04-28T06:10:48;100967.99;;;17.22;27.48
72486;BME280;60509;47.308;-122.428;2023-04-28T06:13:14;100966.32;;;17.40;27.39
72486;BME280;60509;47.308;-122.428;2023-04-28T06:15:40;100963.75;;;17.46;27.28
72486;BME280;60509;47.308;-122.428;2023-04-28T06:18:06;100959.73;;;17.40;27.16
72486;BME280;60509;47.308;-122.428;2023-04-28T06:20:31;100958.63;;;17.20;27.36
72486;BME280;60509;47.308;-122.428;2023-04-28T06:22:57;100958.72;;;17.24;27.24
72486;BME280;60509;47.308;-122.428;2023-04-28T06:25:23;100955.29;;;17.24;27.27
72486;BME280;60509;47.308;-122.428;2023-04-28T06:27:49;100952.00;;;17.24;27.18
72486;BME280;60509;47.308;-122.428;2023-04-28T06:30:18;100949.02;;;17.40;27.10
72486;BME280;60509;47.308;-122.428;2023-04-28T06:32:41;100949.25;;;17.32;27.18
72486;BME280;60509;47.308;-122.428;2023-04-28T06:35:07;100951.72;;;17.32;27.08
72486;BME280;60509;47.308;-122.428;2023-04-28T06:37:33;100951.48;;;17.34;27.05
72486;BME280;60509;47.308;-122.428;2023-04-28T06:39:59;100946.78;;;17.37;26.92
72486;BME280;60509;47.308;-122.428;2023-04-28T06:42:25;100944.38;;;17.26;26.94
72486;BME280;60509;47.308;-122.428;2023-04-28T06:44:51;100946.64;;;17.27;26.91
72486;BME280;60509;47.308;-122.428;2023-04-28T06:47:16;100948.74;;;17.12;27.00
72486;BME280;60509;47.308;-122.428;2023-04-28T06:49:42;100954.45;;;17.19;26.81
72486;BME280;60509;47.308;-122.428;2023-04-28T06:52:08;100951.15;;;17.24;26.76
72486;BME280;60509;47.308;-122.428;2023-04-28T06:54:34;100948.46;;;17.26;26.84
72486;BME280;60509;47.308;-122.428;2023-04-28T06:57:01;100941.26;;;17.27;26.80
72486;BME280;60509;47.308;-122.428;2023-04-28T06:59:26;100946.47;;;17.12;26.76
72486;BME280;60509;47.308;-122.428;2023-04-28T07:01:52;100950.57;;;16.96;26.65
72486;BME280;60509;47.308;-122.428;2023-04-28T07:04:18;100949.12;;;17.08;26.63
72486;BME280;60509;47.308;-122.428;2023-04-28T07:06:44;100949.23;;;17.04;26.76
72486;BME280;60509;47.308;-122.428;2023-04-28T07:09:10;100947.60;;;16.75;26.79
72486;BME280;60509;47.308;-122.428;2023-04-28T07:11:35;100944.09;;;17.09;26.57
72486;BME280;60509;47.308;-122.428;2023-04-28T07:14:02;100942.09;;;17.09;26.65
72486;BME280;60509;47.308;-122.428;2023-04-28T07:16:27;100942.51;;;16.83;26.65
72486;BME280;60509;47.308;-122.428;2023-04-28T07:18:53;100944.72;;;17.06;26.50
72486;BME280;60509;47.308;-122.428;2023-04-28T07:21:19;100942.68;;;16.99;26.64
72486;BME280;60509;47.308;-122.428;2023-04-28T07:23:45;100941.46;;;16.81;26.61
72486;BME280;60509;47.308;-122.428;2023-04-28T07:26:11;100943.48;;;16.89;26.78
72486;BME280;60509;47.308;-122.428;2023-04-28T07:28:37;100943.78;;;16.81;26.73
72486;BME280;60509;47.308;-122.428;2023-04-28T07:31:03;100948.17;;;16.95;26.71
72486;BME280;60509;47.308;-122.428;2023-04-28T07:33:29;100950.37;;;16.72;26.73
72486;BME280;60509;47.308;-122.428;2023-04-28T07:35:54;100948.44;;;16.84;26.62
72486;BME280;60509;47.308;-122.428;2023-04-28T07:38:20;100948.85;;;17.03;26.61
72486;BME280;60509;47.308;-122.428;2023-04-28T07:40:48;100944.80;;;16.79;26.57
72486;BME280;60509;47.308;-122.428;2023-04-28T07:43:12;100940.56;;;16.66;26.69
72486;BME280;60509;47.308;-122.428;2023-04-28T07:45:38;100941.45;;;16.85;26.65
72486;BME280;60509;47.308;-122.428;2023-04-28T07:48:04;100939.00;;;16.95;27.80
72486;BME280;60509;47.308;-122.428;2023-04-28T07:50:30;100938.21;;;16.44;29.29
72486;BME280;60509;47.308;-122.428;2023-04-28T07:52:56;100936.91;;;17.30;29.52
72486;BME280;60509;47.308;-122.428;2023-04-28T07:55:22;100932.87;;;17.46;29.16
72486;BME280;60509;47.308;-122.428;2023-04-28T07:57:48;100931.28;;;17.41;28.89
72486;BME280;60509;47.308;-122.428;2023-04-28T08:00:14;100927.44;;;17.04;29.38
72486;BME280;60509;47.308;-122.428;2023-04-28T08:02:40;100928.20;;;16.97;29.33
72486;BME280;60509;47.308;-122.428;2023-04-28T08:05:06;100928.42;;;16.89;29.17
72486;BME280;60509;47.308;-122.428;2023-04-28T08:07:32;100929.98;;;16.83;29.05
72486;BME280;60509;47.308;-122.428;2023-04-28T08:09:57;100924.97;;;16.93;28.94
72486;BME280;60509;47.308;-122.428;2023-04-28T08:12:23;100925.89;;;16.80;28.95
72486;BME280;60509;47.308;-122.428;2023-04-28T08:14:49;100918.49;;;17.23;28.76
72486;BME280;60509;47.308;-122.428;2023-04-28T08:17:16;100911.05;;;16.92;28.85
72486;BME280;60509;47.308;-122.428;2023-04-28T08:19:41;100910.63;;;16.49;28.73
72486;BME280;60509;47.308;-122.428;2023-04-28T08:22:07;100907.73;;;16.78;28.57
72486;BME280;60509;47.308;-122.428;2023-04-28T08:24:33;100903.29;;;16.74;28.52
72486;BME280;60509;47.308;-122.428;2023-04-28T08:26:59;100900.48;;;16.69;28.50
72486;BME280;60509;47.308;-122.428;2023-04-28T08:29:25;100898.76;;;16.83;28.26
72486;BME280;60509;47.308;-122.428;2023-04-28T08:31:51;100894.36;;;17.26;28.19
72486;BME280;60509;47.308;-122.428;2023-04-28T08:34:16;100893.29;;;17.33;27.86
72486;BME280;60509;47.308;-122.428;2023-04-28T08:36:42;100893.76;;;17.03;28.00
72486;BME280;60509;47.308;-122.428;2023-04-28T08:39:08;100893.49;;;16.98;28.17
72486;BME280;60509;47.308;-122.428;2023-04-28T08:41:37;100887.42;;;16.48;28.07
72486;BME280;60509;47.308;-122.428;2023-04-28T08:44:00;100881.66;;;16.86;27.95
72486;BME280;60509;47.308;-122.428;2023-04-28T08:46:27;100886.17;;;16.73;28.15
72486;BME280;60509;47.308;-122.428;2023-04-28T08:48:58;100885.32;;;17.07;27.92
72486;BME280;60509;47.308;-122.428;2023-04-28T08:51:27;100883.14;;;16.62;28.12
72486;BME280;60509;47.308;-122.428;2023-04-28T08:53:47;100880.48;;;16.84;28.20
72486;BME280;60509;47.308;-122.428;2023-04-28T08:56:10;100880.72;;;16.78;28.12
72486;BME280;60509;47.308;-122.428;2023-04-28T08:58:36;100882.77;;;16.50;28.19
72486;BME280;60509;47.308;-122.428;2023-04-28T09:01:02;100883.13;;;16.78;28.03
72486;BME280;60509;47.308;-122.428;2023-04-28T09:03:28;100889.17;;;16.56;28.31
72486;BME280;60509;47.308;-122.428;2023-04-28T09:05:54;100889.47;;;16.64;28.12
72486;BME280;60509;47.308;-122.428;2023-04-28T09:08:20;100886.48;;;16.66;27.85
72486;BME280;60509;47.308;-122.428;2023-04-28T09:10:46;100882.36;;;17.16;27.59
72486;BME280;60509;47.308;-122.428;2023-04-28T09:13:24;100880.83;;;17.17;27.65
72486;BME280;60509;47.308;-122.428;2023-04-28T09:15:38;100878.51;;;17.69;27.13
72486;BME280;60509;47.308;-122.428;2023-04-28T09:18:05;100878.48;;;17.18;27.39
72486;BME280;60509;47.308;-122.428;2023-04-28T09:20:32;100873.67;;;17.09;27.46
72486;BME280;60509;47.308;-122.428;2023-04-28T09:23:11;100875.05;;;16.58;27.89
72486;BME280;60509;47.308;-122.428;2023-04-28T09:25:22;100871.20;;;17.94;26.88
72486;BME280;60509;47.308;-122.428;2023-04-28T09:27:47;100871.52;;;16.90;27.47
72486;BME280;60509;47.308;-122.428;2023-04-28T09:30:13;100873.41;;;16.81;27.76
72486;BME280;60509;47.308;-122.428;2023-04-28T09:32:39;100872.25;;;17.13;27.64
72486;BME280;60509;47.308;-122.428;2023-04-28T09:35:05;100869.85;;;16.67;27.64
72486;BME280;60509;47.308;-122.428;2023-04-28T09:37:31;100865.09;;;16.72;27.63
72486;BME280;60509;47.308;-122.428;2023-04-28T09:40:02;100862.53;;;16.84;27.50
72486;BME280;60509;47.308;-122.428;2023-04-28T09:42:31;100862.00;;;16.81;27.54
72486;BME280;60509;47.308;-122.428;2023-04-28T09:44:53;100864.32;;;16.62;27.53
72486;BME280;60509;47.308;-122.428;2023-04-28T09:47:20;100865.28;;;16.63;27.64
72486;BME280;60509;47.308;-122.428;2023-04-28T09:49:53;100860.24;;;17.31;26.87
72486;BME280;60509;47.308;-122.428;2023-04-28T09:52:13;100856.78;;;17.45;26.79
72486;BME280;60509;47.308;-122.428;2023-04-28T09:54:34;100855.25;;;17.69;26.62
72486;BME280;60509;47.308;-122.428;2023-04-28T09:56:58;100855.00;;;17.88;26.62
72486;BME280;60509;47.308;-122.428;2023-04-28T09:59:24;100853.47;;;16.89;27.16
72486;BME280;60509;47.308;-122.428;2023-04-28T10:01:50;100851.72;;;16.60;27.18
72486;BME280;60509;47.308;-122.428;2023-04-28T10:04:16;100855.44;;;16.74;27.28
72486;BME280;60509;47.308;-122.428;2023-04-28T10:06:42;100854.25;;;16.50;27.22
72486;BME280;60509;47.308;-122.428;2023-04-28T10:09:08;100859.78;;;16.77;27.22
72486;BME280;60509;47.308;-122.428;2023-04-28T10:11:34;100859.05;;;16.93;27.23
72486;BME280;60509;47.308;-122.428;2023-04-28T10:14:00;100860.63;;;16.44;27.12
72486;BME280;60509;47.308;-122.428;2023-04-28T10:16:30;100860.01;;;16.60;27.12
72486;BME280;60509;47.308;-122.428;2023-04-28T10:18:52;100856.11;;;16.95;27.12
72486;BME280;60509;47.308;-122.428;2023-04-28T10:21:19;100851.19;;;16.98;27.00
72486;BME280;60509;47.308;-122.428;2023-04-28T10:24:07;100848.84;;;16.97;26.84
72486;BME280;60509;47.308;-122.428;2023-04-28T10:26:12;100844.32;;;17.35;26.46
72486;BME280;60509;47.308;-122.428;2023-04-28T10:28:36;100845.29;;;16.88;26.80
72486;BME280;60509;47.308;-122.428;2023-04-28T10:31:10;100843.36;;;17.31;26.76
72486;BME280;60509;47.308;-122.428;2023-04-28T10:33:27;100842.70;;;16.88;26.98
72486;BME280;60509;47.308;-122.428;2023-04-28T10:35:53;100839.27;;;16.52;27.08
72486;BME280;60509;47.308;-122.428;2023-04-28T10:38:20;100840.86;;;16.35;27.05
72486;BME280;60509;47.308;-122.428;2023-04-28T10:40:46;100834.62;;;16.41;26.94
72486;BME280;60509;47.308;-122.428;2023-04-28T10:43:12;100837.42;;;16.33;27.04
72486;BME280;60509;47.308;-122.428;2023-04-28T10:46:17;100838.35;;;16.73;27.17
72486;BME280;60509;47.308;-122.428;2023-04-28T10:48:03;100833.64;;;16.54;26.96
72486;BME280;60509;47.308;-122.428;2023-04-28T10:50:28;100833.69;;;16.30;26.88
72486;BME280;60509;47.308;-122.428;2023-04-28T10:52:54;100838.12;;;16.10;27.12
72486;BME280;60509;47.308;-122.428;2023-04-28T10:55:30;100832.12;;;17.22;26.68
72486;BME280;60509;47.308;-122.428;2023-04-28T10:57:46;100833.53;;;17.10;26.46
72486;BME280;60509;47.308;-122.428;2023-04-28T11:00:29;100831.00;;;17.59;26.28
72486;BME280;60509;47.308;-122.428;2023-04-28T11:02:39;100832.59;;;16.79;26.55
72486;BME280;60509;47.308;-122.428;2023-04-28T11:05:15;100834.70;;;16.59;26.85
72486;BME280;60509;47.308;-122.428;2023-04-28T11:07:30;100830.87;;;16.18;26.83
72486;BME280;60509;47.308;-122.428;2023-04-28T11:09:56;100828.41;;;16.30;26.91
72486;BME280;60509;47.308;-122.428;2023-04-28T11:12:22;100829.99;;;16.51;26.90
72486;BME280;60509;47.308;-122.428;2023-04-28T11:14:48;100825.56;;;16.72;26.93
72486;BME280;60509;47.308;-122.428;2023-04-28T11:17:14;100824.66;;;16.58;26.81
72486;BME280;60509;47.308;-122.428;2023-04-28T11:19:41;100825.93;;;16.54;26.88
72486;BME280;60509;47.308;-122.428;2023-04-28T11:22:13;100831.20;;;16.50;26.87
72486;BME280;60509;47.308;-122.428;2023-04-28T11:24:31;100831.81;;;15.54;27.29
72486;BME280;60509;47.308;-122.428;2023-04-28T11:26:58;100834.29;;;16.60;26.88
72486;BME280;60509;47.308;-122.428;2023-04-28T11:29:31;100832.34;;;17.20;26.44
72486;BME280;60509;47.308;-122.428;2023-04-28T11:31:50;100834.38;;;17.59;26.21
72486;BME280;60509;47.308;-122.428;2023-04-28T11:34:20;100834.26;;;16.90;26.66
72486;BME280;60509;47.308;-122.428;2023-04-28T11:36:41;100832.97;;;16.29;26.72
72486;BME280;60509;47.308;-122.428;2023-04-28T11:39:08;100833.02;;;16.51;26.78
72486;BME280;60509;47.308;-122.428;2023-04-28T11:41:34;100834.97;;;16.15;26.88
72486;BME280;60509;47.308;-122.428;2023-04-28T11:43:59;100836.17;;;16.01;26.77
72486;BME280;60509;47.308;-122.428;2023-04-28T11:46:25;100840.17;;;16.45;26.83
72486;BME280;60509;47.308;-122.428;2023-04-28T11:49:01;100834.39;;;16.48;26.90
72486;BME280;60509;47.308;-122.428;2023-04-28T11:51:36;100832.97;;;16.22;26.94
72486;BME280;60509;47.308;-122.428;2023-04-28T11:53:44;100832.57;;;16.20;26.84
72486;BME280;60509;47.308;-122.428;2023-04-28T11:56:09;100829.15;;;15.95;26.93
72486;BME280;60509;47.308;-122.428;2023-04-28T11:58:35;100825.03;;;16.69;26.55
72486;BME280;60509;47.308;-122.428;2023-04-28T12:01:09;100827.02;;;17.17;26.48
72486;BME280;60509;47.308;-122.428;2023-04-28T12:03:27;100826.02;;;17.23;26.28
72486;BME280;60509;47.308;-122.428;2023-04-28T12:05:53;100822.66;;;17.07;26.50
72486;BME280;60509;47.308;-122.428;2023-04-28T12:08:27;100821.83;;;16.89;26.62
72486;BME280;60509;47.308;-122.428;2023-04-28T12:11:06;100825.23;;;16.69;26.82
72486;BME280;60509;47.308;-122.428;2023-04-28T12:13:15;100826.31;;;16.54;26.94